Kyzyl, Russia
Current Conditions -  °F | °C
As of 4:30 AM on Thursday 23 Oct 2014 (Local Time) from UNAA Reporting Station
Overcast Overcast  
Wind Chill: 28°   Ceiling: 6600
Heat Index: 34°   Visibility: 6mi
Dew Point: 28°   Wind: 7mph
Humidity: 81%   Direction: 140°SE
Pressure: 30.03"   Gusts: NA
Location:  51.71°N, 94.38°E
Report Text: UNAA 222130Z 14003MPS 9999 SCT026CB OVC066 01/M02 Q1017 NOSIGRMK QFE740 20190060
Loading
Personal Weather Stations






























Interactive Weather Map
Tropical Storm Tracking
New forecast layout! Learn more

10-Day Weather Forecast

Advertisements
Track Severe Weather on mobile